sensor_id;sensor_type;location;lat;lon;timestamp;pressure;altitude;pressure_sealevel;temperature;humidity
32873;BME280;19224;52.462;16.898;2023-04-19T00:02:09;101079.65;;;8.47;77.50
32873;BME280;19224;52.462;16.898;2023-04-19T00:04:39;101089.15;;;8.42;75.57
32873;BME280;19224;52.462;16.898;2023-04-19T00:07:09;101078.91;;;8.40;74.26
32873;BME280;19224;52.462;16.898;2023-04-19T00:09:39;101079.86;;;8.38;74.70
32873;BME280;19224;52.462;16.898;2023-04-19T00:12:09;101064.66;;;8.38;74.86
32873;BME280;19224;52.462;16.898;2023-04-19T00:14:39;101070.63;;;8.32;75.99
32873;BME280;19224;52.462;16.898;2023-04-19T00:17:09;101070.73;;;8.27;77.43
32873;BME280;19224;52.462;16.898;2023-04-19T00:19:40;101066.70;;;8.27;78.40
32873;BME280;19224;52.462;16.898;2023-04-19T00:22:11;101066.28;;;8.26;79.41
32873;BME280;19224;52.462;16.898;2023-04-19T00:24:41;101061.05;;;8.20;79.61
32873;BME280;19224;52.462;16.898;2023-04-19T00:27:11;101062.59;;;8.11;80.76
32873;BME280;19224;52.462;16.898;2023-04-19T00:29:40;101058.27;;;8.04;81.43
32873;BME280;19224;52.462;16.898;2023-04-19T00:32:15;101062.47;;;7.97;81.42
32873;BME280;19224;52.462;16.898;2023-04-19T00:34:48;101059.16;;;7.84;79.76
32873;BME280;19224;52.462;16.898;2023-04-19T00:37:21;101052.97;;;7.81;79.19
32873;BME280;19224;52.462;16.898;2023-04-19T00:39:53;101057.64;;;7.73;79.18
32873;BME280;19224;52.462;16.898;2023-04-19T00:42:23;101057.77;;;7.65;79.68
32873;BME280;19224;52.462;16.898;2023-04-19T00:44:53;101053.14;;;7.53;80.92
32873;BME280;19224;52.462;16.898;2023-04-19T00:47:23;101045.28;;;7.44;81.03
32873;BME280;19224;52.462;16.898;2023-04-19T00:49:53;101048.61;;;7.34;81.83
32873;BME280;19224;52.462;16.898;2023-04-19T00:52:23;101043.52;;;7.21;83.01
32873;BME280;19224;52.462;16.898;2023-04-19T00:54:55;101043.84;;;7.03;83.45
32873;BME280;19224;52.462;16.898;2023-04-19T00:57:29;101042.31;;;6.90;83.70
32873;BME280;19224;52.462;16.898;2023-04-19T00:59:59;101041.48;;;6.87;83.70
32873;BME280;19224;52.462;16.898;2023-04-19T01:02:30;101042.03;;;6.82;83.87
32873;BME280;19224;52.462;16.898;2023-04-19T01:05:00;101032.19;;;6.82;83.68
32873;BME280;19224;52.462;16.898;2023-04-19T01:07:35;101031.07;;;6.70;84.45
32873;BME280;19224;52.462;16.898;2023-04-19T01:10:06;101032.39;;;6.72;85.50
32873;BME280;19224;52.462;16.898;2023-04-19T01:12:36;101024.58;;;6.60;85.95
32873;BME280;19224;52.462;16.898;2023-04-19T01:15:09;101035.38;;;6.54;87.16
32873;BME280;19224;52.462;16.898;2023-04-19T01:17:40;101020.35;;;6.47;88.11
32873;BME280;19224;52.462;16.898;2023-04-19T01:20:15;101025.42;;;6.37;89.00
32873;BME280;19224;52.462;16.898;2023-04-19T01:22:44;101022.95;;;6.25;89.82
32873;BME280;19224;52.462;16.898;2023-04-19T01:25:16;101021.38;;;6.12;90.54
32873;BME280;19224;52.462;16.898;2023-04-19T01:27:48;101021.81;;;6.11;91.09
32873;BME280;19224;52.462;16.898;2023-04-19T01:30:18;101013.48;;;6.03;90.45
32873;BME280;19224;52.462;16.898;2023-04-19T01:32:48;101014.05;;;5.93;91.00
32873;BME280;19224;52.462;16.898;2023-04-19T01:35:18;101018.59;;;5.90;91.39
32873;BME280;19224;52.462;16.898;2023-04-19T01:37:53;101012.46;;;5.82;91.55
32873;BME280;19224;52.462;16.898;2023-04-19T01:40:26;101017.84;;;5.76;92.29
32873;BME280;19224;52.462;16.898;2023-04-19T01:42:56;101009.88;;;5.71;92.52
32873;BME280;19224;52.462;16.898;2023-04-19T01:45:26;101006.52;;;5.57;93.38
32873;BME280;19224;52.462;16.898;2023-04-19T01:47:58;100997.23;;;5.54;93.59
32873;BME280;19224;52.462;16.898;2023-04-19T01:50:31;101003.44;;;5.55;93.87
32873;BME280;19224;52.462;16.898;2023-04-19T01:53:05;101007.17;;;5.42;94.47
32873;BME280;19224;52.462;16.898;2023-04-19T01:55:40;101000.48;;;5.45;94.04
32873;BME280;19224;52.462;16.898;2023-04-19T01:58:11;101004.55;;;5.39;94.77
32873;BME280;19224;52.462;16.898;2023-04-19T02:00:43;101005.94;;;5.34;94.74
32873;BME280;19224;52.462;16.898;2023-04-19T02:03:13;100997.56;;;5.27;94.52
32873;BME280;19224;52.462;16.898;2023-04-19T02:05:44;100994.08;;;5.24;94.77
32873;BME280;19224;52.462;16.898;2023-04-19T02:08:15;100993.16;;;5.25;94.81
32873;BME280;19224;52.462;16.898;2023-04-19T02:10:48;100991.84;;;5.22;94.92
32873;BME280;19224;52.462;16.898;2023-04-19T02:13:18;100989.78;;;5.11;95.74
32873;BME280;19224;52.462;16.898;2023-04-19T02:15:51;101004.00;;;5.13;95.74
32873;BME280;19224;52.462;16.898;2023-04-19T02:18:21;100993.84;;;5.05;96.58
32873;BME280;19224;52.462;16.898;2023-04-19T02:20:52;100981.46;;;4.98;97.37
32873;BME280;19224;52.462;16.898;2023-04-19T02:23:22;100987.80;;;4.91;98.04
32873;BME280;19224;52.462;16.898;2023-04-19T02:25:52;100978.55;;;4.82;99.02
32873;BME280;19224;52.462;16.898;2023-04-19T02:28:22;100980.34;;;4.80;99.58
32873;BME280;19224;52.462;16.898;2023-04-19T02:30:56;100978.20;;;4.73;100.00
32873;BME280;19224;52.462;16.898;2023-04-19T02:33:28;100975.59;;;4.66;100.00
32873;BME280;19224;52.462;16.898;2023-04-19T02:36:02;100979.63;;;4.64;100.00
32873;BME280;19224;52.462;16.898;2023-04-19T02:38:32;100971.20;;;4.62;100.00
32873;BME280;19224;52.462;16.898;2023-04-19T02:41:08;100973.39;;;4.64;100.00
32873;BME280;19224;52.462;16.898;2023-04-19T02:43:36;100970.41;;;4.51;100.00
32873;BME280;19224;52.462;16.898;2023-04-19T02:46:12;100978.02;;;4.47;100.00
32873;BME280;19224;52.462;16.898;2023-04-19T02:48:42;100970.10;;;4.38;100.00
32873;BME280;19224;52.462;16.898;2023-04-19T02:51:17;100967.52;;;4.29;100.00
32873;BME280;19224;52.462;16.898;2023-04-19T02:53:47;100969.78;;;4.24;100.00
32873;BME280;19224;52.462;16.898;2023-04-19T02:56:20;100967.16;;;4.22;100.00
32873;BME280;19224;52.462;16.898;2023-04-19T02:58:51;100960.05;;;4.20;100.00
32873;BME280;19224;52.462;16.898;2023-04-19T03:01:24;100964.16;;;4.06;100.00
32873;BME280;19224;52.462;16.898;2023-04-19T03:03:54;100950.00;;;4.01;100.00
32873;BME280;19224;52.462;16.898;2023-04-19T03:06:24;100944.28;;;3.96;100.00
32873;BME280;19224;52.462;16.898;2023-04-19T03:08:54;100930.52;;;3.93;100.00
32873;BME280;19224;52.462;16.898;2023-04-19T03:11:24;100937.22;;;3.87;100.00
32873;BME280;19224;52.462;16.898;2023-04-19T03:13:56;100936.78;;;3.89;100.00
32873;BME280;19224;52.462;16.898;2023-04-19T03:16:29;100932.81;;;3.83;100.00
32873;BME280;19224;52.462;16.898;2023-04-19T03:18:59;100929.19;;;3.92;100.00
32873;BME280;19224;52.462;16.898;2023-04-19T03:21:30;100930.19;;;3.80;100.00
32873;BME280;19224;52.462;16.898;2023-04-19T03:24:01;100929.75;;;3.78;100.00
32873;BME280;19224;52.462;16.898;2023-04-19T03:26:33;100919.13;;;3.73;100.00
32873;BME280;19224;52.462;16.898;2023-04-19T03:29:03;100923.62;;;3.68;100.00
32873;BME280;19224;52.462;16.898;2023-04-19T03:31:33;100923.09;;;3.78;100.00
32873;BME280;19224;52.462;16.898;2023-04-19T03:34:07;100917.83;;;3.70;100.00
32873;BME280;19224;52.462;16.898;2023-04-19T03:36:42;100920.55;;;3.61;100.00
32873;BME280;19224;52.462;16.898;2023-04-19T03:39:12;100925.01;;;3.58;100.00
32873;BME280;19224;52.462;16.898;2023-04-19T03:41:50;100924.58;;;3.57;100.00
32873;BME280;19224;52.462;16.898;2023-04-19T03:44:23;100915.31;;;3.49;100.00
32873;BME280;19224;52.462;16.898;2023-04-19T03:46:54;100915.72;;;3.53;100.00
32873;BME280;19224;52.462;16.898;2023-04-19T03:49:24;100916.16;;;3.57;100.00
32873;BME280;19224;52.462;16.898;2023-04-19T03:51:54;100909.90;;;3.61;100.00
32873;BME280;19224;52.462;16.898;2023-04-19T03:54:24;100894.79;;;3.65;100.00
32873;BME280;19224;52.462;16.898;2023-04-19T03:56:54;100895.66;;;3.68;100.00
32873;BME280;19224;52.462;16.898;2023-04-19T03:59:28;100899.13;;;3.79;100.00
32873;BME280;19224;52.462;16.898;2023-04-19T04:02:04;100894.19;;;3.83;100.00
32873;BME280;19224;52.462;16.898;2023-04-19T04:04:35;100896.39;;;3.85;100.00
32873;BME280;19224;52.462;16.898;2023-04-19T04:07:05;100895.41;;;3.95;100.00
32873;BME280;19224;52.462;16.898;2023-04-19T04:09:40;100898.55;;;3.95;100.00
32873;BME280;19224;52.462;16.898;2023-04-19T04:12:15;100898.12;;;3.91;100.00
32873;BME280;19224;52.462;16.898;2023-04-19T04:14:47;100898.16;;;3.86;100.00
32873;BME280;19224;52.462;16.898;2023-04-19T04:17:28;100893.72;;;3.85;100.00
32873;BME280;19224;52.462;16.898;2023-04-19T04:19:54;100896.35;;;3.91;100.00
32873;BME280;19224;52.462;16.898;2023-04-19T04:22:25;100895.02;;;3.91;100.00
32873;BME280;19224;52.462;16.898;2023-04-19T04:24:56;100886.09;;;3.95;100.00
32873;BME280;19224;52.462;16.898;2023-04-19T04:27:36;100883.39;;;4.01;100.00
32873;BME280;19224;52.462;16.898;2023-04-19T04:30:14;100888.59;;;4.13;100.00
32873;BME280;19224;52.462;16.898;2023-04-19T04:32:39;100881.00;;;4.17;100.00
32873;BME280;19224;52.462;16.898;2023-04-19T04:35:11;100881.50;;;4.12;100.00
32873;BME280;19224;52.462;16.898;2023-04-19T04:37:42;100882.05;;;3.98;100.00
32873;BME280;19224;52.462;16.898;2023-04-19T04:40:12;100884.68;;;4.04;100.00
32873;BME280;19224;52.462;16.898;2023-04-19T04:42:45;100876.56;;;4.16;100.00
32873;BME280;19224;52.462;16.898;2023-04-19T04:45:15;100873.34;;;4.29;100.00
32873;BME280;19224;52.462;16.898;2023-04-19T04:47:46;100872.52;;;4.22;100.00
32873;BME280;19224;52.462;16.898;2023-04-19T04:50:16;100874.67;;;4.27;100.00
32873;BME280;19224;52.462;16.898;2023-04-19T04:52:51;100858.59;;;4.35;100.00
32873;BME280;19224;52.462;16.898;2023-04-19T04:55:23;100859.92;;;4.36;100.00
32873;BME280;19224;52.462;16.898;2023-04-19T04:57:59;100861.60;;;4.43;100.00
32873;BME280;19224;52.462;16.898;2023-04-19T05:00:29;100861.12;;;4.48;100.00
32873;BME280;19224;52.462;16.898;2023-04-19T05:03:01;100855.69;;;4.57;100.00
32873;BME280;19224;52.462;16.898;2023-04-19T05:05:32;100867.11;;;4.66;100.00
32873;BME280;19224;52.462;16.898;2023-04-19T05:08:06;100856.17;;;4.89;100.00
32873;BME280;19224;52.462;16.898;2023-04-19T05:10:43;100854.99;;;5.08;100.00
32873;BME280;19224;52.462;16.898;2023-04-19T05:13:13;100846.38;;;5.19;100.00
32873;BME280;19224;52.462;16.898;2023-04-19T05:15:45;100849.23;;;5.07;100.00
32873;BME280;19224;52.462;16.898;2023-04-19T05:18:15;100850.08;;;5.09;100.00
32873;BME280;19224;52.462;16.898;2023-04-19T05:20:45;100848.38;;;5.03;100.00
32873;BME280;19224;52.462;16.898;2023-04-19T05:23:17;100843.84;;;5.10;100.00
32873;BME280;19224;52.462;16.898;2023-04-19T05:25:48;100847.83;;;5.11;100.00
32873;BME280;19224;52.462;16.898;2023-04-19T05:28:23;100843.34;;;5.13;100.00
32873;BME280;19224;52.462;16.898;2023-04-19T05:30:53;100839.64;;;5.23;100.00
32873;BME280;19224;52.462;16.898;2023-04-19T05:33:29;100834.59;;;5.35;100.00
32873;BME280;19224;52.462;16.898;2023-04-19T05:35:55;100834.04;;;5.41;100.00
32873;BME280;19224;52.462;16.898;2023-04-19T05:38:28;100838.11;;;5.37;100.00
32873;BME280;19224;52.462;16.898;2023-04-19T05:41:01;100836.64;;;5.46;100.00
32873;BME280;19224;52.462;16.898;2023-04-19T05:43:31;100845.02;;;5.50;100.00
32873;BME280;19224;52.462;16.898;2023-04-19T05:46:06;100836.38;;;5.61;100.00
32873;BME280;19224;52.462;16.898;2023-04-19T05:48:39;100841.24;;;5.63;100.00
32873;BME280;19224;52.462;16.898;2023-04-19T05:51:12;100836.13;;;5.79;100.00
32873;BME280;19224;52.462;16.898;2023-04-19T05:53:42;100832.17;;;5.73;100.00
32873;BME280;19224;52.462;16.898;2023-04-19T05:56:18;100832.59;;;5.74;100.00
32873;BME280;19224;52.462;16.898;2023-04-19T05:58:50;100839.75;;;5.73;100.00
32873;BME280;19224;52.462;16.898;2023-04-19T06:01:20;100831.08;;;5.86;100.00
32873;BME280;19224;52.462;16.898;2023-04-19T06:03:56;100831.78;;;5.97;100.00
32873;BME280;19224;52.462;16.898;2023-04-19T06:06:26;100837.97;;;5.99;100.00
32873;BME280;19224;52.462;16.898;2023-04-19T06:08:56;100825.87;;;6.03;100.00
32873;BME280;19224;52.462;16.898;2023-04-19T06:11:29;100831.05;;;6.12;100.00
32873;BME280;19224;52.462;16.898;2023-04-19T06:14:01;100845.96;;;6.02;100.00
32873;BME280;19224;52.462;16.898;2023-04-19T06:16:31;100842.80;;;6.04;100.00
32873;BME280;19224;52.462;16.898;2023-04-19T06:19:01;100845.56;;;5.98;100.00
32873;BME280;19224;52.462;16.898;2023-04-19T06:21:33;100847.72;;;6.03;100.00
32873;BME280;19224;52.462;16.898;2023-04-19T06:24:10;100851.25;;;6.05;100.00
32873;BME280;19224;52.462;16.898;2023-04-19T06:26:42;100854.97;;;6.20;100.00
32873;BME280;19224;52.462;16.898;2023-04-19T06:29:18;100857.87;;;6.08;100.00
32873;BME280;19224;52.462;16.898;2023-04-19T06:31:51;100854.34;;;6.06;100.00
32873;BME280;19224;52.462;16.898;2023-04-19T06:34:21;100860.11;;;6.08;100.00
32873;BME280;19224;52.462;16.898;2023-04-19T06:36:53;100858.91;;;6.01;100.00
32873;BME280;19224;52.462;16.898;2023-04-19T06:39:23;100858.50;;;5.98;100.00
32873;BME280;19224;52.462;16.898;2023-04-19T06:41:53;100857.45;;;5.82;100.00
32873;BME280;19224;52.462;16.898;2023-04-19T06:44:27;100853.02;;;5.81;100.00
32873;BME280;19224;52.462;16.898;2023-04-19T06:46:57;100848.58;;;5.80;100.00
32873;BME280;19224;52.462;16.898;2023-04-19T06:49:27;100846.81;;;5.76;100.00
32873;BME280;19224;52.462;16.898;2023-04-19T06:51:59;100845.41;;;5.83;100.00
32873;BME280;19224;52.462;16.898;2023-04-19T06:54:30;100842.12;;;5.91;100.00
32873;BME280;19224;52.462;16.898;2023-04-19T06:57:00;100834.74;;;5.80;100.00
32873;BME280;19224;52.462;16.898;2023-04-19T06:59:31;100829.39;;;5.82;100.00
32873;BME280;19224;52.462;16.898;2023-04-19T07:02:01;100830.23;;;5.84;100.00
32873;BME280;19224;52.462;16.898;2023-04-19T07:04:36;100833.88;;;6.03;100.00
32873;BME280;19224;52.462;16.898;2023-04-19T07:07:03;100826.81;;;6.24;100.00
32873;BME280;19224;52.462;16.898;2023-04-19T07:09:33;100830.98;;;6.15;100.00
32873;BME280;19224;52.462;16.898;2023-04-19T07:12:03;100828.97;;;6.51;100.00
32873;BME280;19224;52.462;16.898;2023-04-19T07:14:33;100821.78;;;6.53;100.00
32873;BME280;19224;52.462;16.898;2023-04-19T07:17:04;100818.17;;;6.56;100.00
32873;BME280;19224;52.462;16.898;2023-04-19T07:19:34;100816.84;;;6.56;100.00
32873;BME280;19224;52.462;16.898;2023-04-19T07:22:09;100818.92;;;6.83;100.00
32873;BME280;19224;52.462;16.898;2023-04-19T07:24:39;100828.05;;;6.93;100.00
32873;BME280;19224;52.462;16.898;2023-04-19T07:27:11;100832.66;;;6.87;100.00
32873;BME280;19224;52.462;16.898;2023-04-19T07:29:42;100832.16;;;6.89;100.00
32873;BME280;19224;52.462;16.898;2023-04-19T07:32:15;100840.34;;;6.83;100.00
32873;BME280;19224;52.462;16.898;2023-04-19T07:34:46;100834.25;;;6.75;100.00
32873;BME280;19224;52.462;16.898;2023-04-19T07:37:18;100825.20;;;6.61;100.00
32873;BME280;19224;52.462;16.898;2023-04-19T07:39:52;100806.80;;;6.67;100.00
32873;BME280;19224;52.462;16.898;2023-04-19T07:42:23;100801.05;;;6.63;100.00
32873;BME280;19224;52.462;16.898;2023-04-19T07:45:00;100811.77;;;6.63;100.00
32873;BME280;19224;52.462;16.898;2023-04-19T07:47:28;100805.67;;;6.55;100.00
32873;BME280;19224;52.462;16.898;2023-04-19T07:49:59;100818.52;;;6.60;100.00
32873;BME280;19224;52.462;16.898;2023-04-19T07:52:29;100835.98;;;6.35;100.00
32873;BME280;19224;52.462;16.898;2023-04-19T07:54:59;100844.01;;;6.35;100.00
32873;BME280;19224;52.462;16.898;2023-04-19T07:57:29;100832.75;;;6.40;100.00
32873;BME280;19224;52.462;16.898;2023-04-19T08:00:05;100825.89;;;6.25;100.00
32873;BME280;19224;52.462;16.898;2023-04-19T08:02:38;100824.88;;;6.09;100.00
32873;BME280;19224;52.462;16.898;2023-04-19T08:05:14;100825.49;;;6.01;100.00
32873;BME280;19224;52.462;16.898;2023-04-19T08:07:51;100822.91;;;5.95;100.00
32873;BME280;19224;52.462;16.898;2023-04-19T08:10:23;100828.09;;;6.04;100.00
32873;BME280;19224;52.462;16.898;2023-04-19T08:13:00;100826.63;;;6.10;100.00
32873;BME280;19224;52.462;16.898;2023-04-19T08:15:35;100829.52;;;5.99;100.00
32873;BME280;19224;52.462;16.898;2023-04-19T08:18:11;100836.77;;;5.93;100.00
32873;BME280;19224;52.462;16.898;2023-04-19T08:20:44;100831.72;;;6.00;100.00
32873;BME280;19224;52.462;16.898;2023-04-19T08:23:15;100828.52;;;6.05;100.00
32873;BME280;19224;52.462;16.898;2023-04-19T08:25:51;100832.17;;;6.01;100.00
32873;BME280;19224;52.462;16.898;2023-04-19T08:28:23;100830.25;;;5.82;100.00
32873;BME280;19224;52.462;16.898;2023-04-19T08:30:58;100828.48;;;5.81;100.00
32873;BME280;19224;52.462;16.898;2023-04-19T08:33:28;100824.97;;;5.79;100.00
32873;BME280;19224;52.462;16.898;2023-04-19T08:36:01;100821.37;;;5.82;100.00
32873;BME280;19224;52.462;16.898;2023-04-19T08:38:30;100818.53;;;5.63;100.00
32873;BME280;19224;52.462;16.898;2023-04-19T08:41:01;100815.08;;;5.58;100.00
32873;BME280;19224;52.462;16.898;2023-04-19T08:43:34;100799.83;;;5.63;100.00
32873;BME280;19224;52.462;16.898;2023-04-19T08:46:04;100800.09;;;5.48;100.00
32873;BME280;19224;52.462;16.898;2023-04-19T08:48:38;100801.59;;;5.64;100.00
32873;BME280;19224;52.462;16.898;2023-04-19T08:51:14;100797.42;;;5.48;100.00
32873;BME280;19224;52.462;16.898;2023-04-19T08:53:46;100781.80;;;5.24;100.00
32873;BME280;19224;52.462;16.898;2023-04-19T08:56:18;100796.02;;;5.24;100.00
32873;BME280;19224;52.462;16.898;2023-04-19T08:58:48;100785.83;;;5.21;100.00
32873;BME280;19224;52.462;16.898;2023-04-19T09:01:23;100776.59;;;5.15;100.00
32873;BME280;19224;52.462;16.898;2023-04-19T09:03:54;100762.56;;;5.29;100.00
32873;BME280;19224;52.462;16.898;2023-04-19T09:06:25;100765.73;;;5.25;100.00
32873;BME280;19224;52.462;16.898;2023-04-19T09:11:53;100762.22;;;5.23;100.00
32873;BME280;19224;52.462;16.898;2023-04-19T09:14:25;100754.12;;;5.29;100.00
32873;BME280;19224;52.462;16.898;2023-04-19T09:17:11;100747.39;;;5.32;100.00
32873;BME280;19224;52.462;16.898;2023-04-19T09:19:48;100746.34;;;5.41;100.00
32873;BME280;19224;52.462;16.898;2023-04-19T09:22:18;100745.91;;;5.41;100.00
32873;BME280;19224;52.462;16.898;2023-04-19T09:24:50;100743.67;;;5.41;100.00
32873;BME280;19224;52.462;16.898;2023-04-19T09:27:35;100742.27;;;5.19;100.00
32873;BME280;19224;52.462;16.898;2023-04-19T09:30:07;100737.63;;;5.30;100.00
32873;BME280;19224;52.462;16.898;2023-04-19T09:32:47;100734.02;;;5.34;100.00
32873;BME280;19224;52.462;16.898;2023-04-19T09:35:29;100737.81;;;5.46;100.00
32873;BME280;19224;52.462;16.898;2023-04-19T09:37:59;100736.94;;;5.44;100.00
32873;BME280;19224;52.462;16.898;2023-04-19T09:40:29;100738.18;;;5.50;100.00
32873;BME280;19224;52.462;16.898;2023-04-19T09:43:01;100742.19;;;5.50;100.00
32873;BME280;19224;52.462;16.898;2023-04-19T09:45:46;100742.63;;;5.49;100.00
32873;BME280;19224;52.462;16.898;2023-04-19T09:48:17;100751.05;;;5.52;100.00
32873;BME280;19224;52.462;16.898;2023-04-19T09:50:53;100744.78;;;5.54;100.00
32873;BME280;19224;52.462;16.898;2023-04-19T09:53:26;100744.72;;;5.57;100.00
32873;BME280;19224;52.462;16.898;2023-04-19T09:56:00;100738.54;;;5.54;100.00
32873;BME280;19224;52.462;16.898;2023-04-19T09:58:31;100740.71;;;5.57;100.00
32873;BME280;19224;52.462;16.898;2023-04-19T10:01:02;100731.86;;;5.54;100.00
32873;BME280;19224;52.462;16.898;2023-04-19T10:03:35;100735.50;;;5.50;100.00
32873;BME280;19224;52.462;16.898;2023-04-19T10:06:07;100731.28;;;5.62;100.00
32873;BME280;19224;52.462;16.898;2023-04-19T10:08:38;100739.06;;;5.75;100.00
32873;BME280;19224;52.462;16.898;2023-04-19T10:11:08;100730.08;;;5.81;100.00
32873;BME280;19224;52.462;16.898;2023-04-19T10:13:44;100736.17;;;5.89;100.00
32873;BME280;19224;52.462;16.898;2023-04-19T10:16:18;100728.66;;;5.85;100.00
32873;BME280;19224;52.462;16.898;2023-04-19T10:18:52;100727.32;;;5.85;100.00
32873;BME280;19224;52.462;16.898;2023-04-19T10:21:27;100727.34;;;5.84;100.00
32873;BME280;19224;52.462;16.898;2023-04-19T10:24:01;100725.41;;;5.92;100.00
32873;BME280;19224;52.462;16.898;2023-04-19T10:27:05;100732.37;;;5.99;100.00
32873;BME280;19224;52.462;16.898;2023-04-19T10:30:03;100733.53;;;5.86;100.00
32873;BME280;19224;52.462;16.898;2023-04-19T10:32:45;100728.95;;;5.92;100.00
32873;BME280;19224;52.462;16.898;2023-04-19T10:35:26;100724.84;;;5.73;100.00
32873;BME280;19224;52.462;16.898;2023-04-19T10:38:10;100720.91;;;5.94;100.00
32873;BME280;19224;52.462;16.898;2023-04-19T10:40:57;100721.91;;;6.10;100.00
32873;BME280;19224;52.462;16.898;2023-04-19T10:43:36;100718.75;;;6.12;100.00
32873;BME280;19224;52.462;16.898;2023-04-19T10:49:02;100719.17;;;6.13;100.00
32873;BME280;19224;52.462;16.898;2023-04-19T10:51:38;100722.84;;;6.30;100.00
32873;BME280;19224;52.462;16.898;2023-04-19T10:54:37;100727.08;;;6.40;100.00
32873;BME280;19224;52.462;16.898;2023-04-19T10:57:08;100721.05;;;6.51;100.00
32873;BME280;19224;52.462;16.898;2023-04-19T10:59:40;100719.59;;;6.57;100.00
32873;BME280;19224;52.462;16.898;2023-04-19T11:02:28;100716.95;;;6.54;100.00
32873;BME280;19224;52.462;16.898;2023-04-19T11:05:05;100712.97;;;6.73;100.00
32873;BME280;19224;52.462;16.898;2023-04-19T11:07:40;100709.01;;;6.89;100.00
32873;BME280;19224;52.462;16.898;2023-04-19T11:10:33;100707.33;;;6.85;100.00
32873;BME280;19224;52.462;16.898;2023-04-19T11:13:07;100708.61;;;6.69;100.00
32873;BME280;19224;52.462;16.898;2023-04-19T11:15:41;100708.03;;;6.74;100.00
32873;BME280;19224;52.462;16.898;2023-04-19T11:18:19;100695.63;;;6.89;100.00
32873;BME280;19224;52.462;16.898;2023-04-19T11:20:52;100698.59;;;6.77;100.00
32873;BME280;19224;52.462;16.898;2023-04-19T11:23:23;100697.95;;;6.66;100.00
32873;BME280;19224;52.462;16.898;2023-04-19T11:25:53;100697.91;;;6.69;100.00
32873;BME280;19224;52.462;16.898;2023-04-19T11:28:24;100700.70;;;6.63;100.00
32873;BME280;19224;52.462;16.898;2023-04-19T11:30:55;100699.62;;;6.52;100.00
32873;BME280;19224;52.462;16.898;2023-04-19T11:33:31;100688.86;;;6.74;100.00
32873;BME280;19224;52.462;16.898;2023-04-19T11:36:10;100692.27;;;6.81;100.00
32873;BME280;19224;52.462;16.898;2023-04-19T11:38:37;100689.92;;;6.66;100.00
32873;BME280;19224;52.462;16.898;2023-04-19T11:41:11;100688.06;;;6.69;100.00
32873;BME280;19224;52.462;16.898;2023-04-19T11:43:42;100688.33;;;6.78;100.00
32873;BME280;19224;52.462;16.898;2023-04-19T11:46:16;100689.04;;;6.67;100.00
32873;BME280;19224;52.462;16.898;2023-04-19T11:48:52;100687.63;;;6.49;100.00
32873;BME280;19224;52.462;16.898;2023-04-19T11:51:24;100682.97;;;6.59;100.00
32873;BME280;19224;52.462;16.898;2023-04-19T11:53:55;100685.47;;;6.66;100.00
32873;BME280;19224;52.462;16.898;2023-04-19T11:56:25;100681.55;;;6.62;100.00
32873;BME280;19224;52.462;16.898;2023-04-19T11:58:57;100677.88;;;6.85;100.00
32873;BME280;19224;52.462;16.898;2023-04-19T12:01:29;100683.73;;;7.02;100.00
32873;BME280;19224;52.462;16.898;2023-04-19T12:04:03;100674.19;;;7.07;100.00
32873;BME280;19224;52.462;16.898;2023-04-19T12:06:33;100676.36;;;6.92;100.00
32873;BME280;19224;52.462;16.898;2023-04-19T12:09:06;100673.44;;;7.03;100.00
32873;BME280;19224;52.462;16.898;2023-04-19T12:11:46;100676.36;;;6.92;100.00
32873;BME280;19224;52.462;16.898;2023-04-19T12:14:20;100680.63;;;7.01;100.00
32873;BME280;19224;52.462;16.898;2023-04-19T12:17:12;100678.78;;;6.85;100.00
32873;BME280;19224;52.462;16.898;2023-04-19T12:19:46;100679.32;;;6.99;100.00
32873;BME280;19224;52.462;16.898;2023-04-19T12:22:19;100684.59;;;7.02;100.00
32873;BME280;19224;52.462;16.898;2023-04-19T12:24:57;100678.09;;;7.12;100.00
32873;BME280;19224;52.462;16.898;2023-04-19T12:27:28;100677.76;;;7.25;100.00
32873;BME280;19224;52.462;16.898;2023-04-19T12:30:03;100678.73;;;7.04;100.00
32873;BME280;19224;52.462;16.898;2023-04-19T12:32:30;100674.97;;;7.12;100.00
32873;BME280;19224;52.462;16.898;2023-04-19T12:35:01;100672.72;;;7.13;100.00
32873;BME280;19224;52.462;16.898;2023-04-19T12:37:35;100658.20;;;7.04;100.00
32873;BME280;19224;52.462;16.898;2023-04-19T12:40:07;100668.00;;;7.05;100.00
32873;BME280;19224;52.462;16.898;2023-04-19T12:42:37;100672.91;;;7.23;100.00
32873;BME280;19224;52.462;16.898;2023-04-19T12:45:10;100672.65;;;7.32;100.00
32873;BME280;19224;52.462;16.898;2023-04-19T12:47:46;100670.33;;;7.36;100.00
32873;BME280;19224;52.462;16.898;2023-04-19T12:50:16;100669.08;;;7.33;100.00
32873;BME280;19224;52.462;16.898;2023-04-19T12:52:46;100664.55;;;7.35;100.00
32873;BME280;19224;52.462;16.898;2023-04-19T12:55:16;100662.71;;;7.37;100.00
32873;BME280;19224;52.462;16.898;2023-04-19T12:57:49;100661.91;;;7.34;100.00
32873;BME280;19224;52.462;16.898;2023-04-19T13:00:25;100657.86;;;7.35;100.00
32873;BME280;19224;52.462;16.898;2023-04-19T13:02:52;100661.52;;;7.31;100.00
32873;BME280;19224;52.462;16.898;2023-04-19T13:05:22;100652.84;;;7.22;100.00
32873;BME280;19224;52.462;16.898;2023-04-19T13:07:52;100648.55;;;7.15;100.00
32873;BME280;19224;52.462;16.898;2023-04-19T13:10:31;100641.13;;;7.26;100.00
32873;BME280;19224;52.462;16.898;2023-04-19T13:12:58;100647.05;;;7.38;100.00
32873;BME280;19224;52.462;16.898;2023-04-19T13:15:28;100642.05;;;7.58;100.00
32873;BME280;19224;52.462;16.898;2023-04-19T13:18:05;100646.75;;;7.66;100.00